Time;durP1;ratioP1;P1;durP2;ratioP2;P2;SDS_P1;SDS_P2;PMS_P1;PMS_P2;Temp;Humidity;BMP_temperature;BMP_pressure;BME280_temperature;BME280_humidity;BME280_pressure;Samples;Min_cycle;Max_cycle;Signal;HPM_P1;HPM_P2
2023/12/07 00:01:10;;;;;;;19.63;11.70;;;2.50;99.90;;;;;;5069539;28;20075;-80
2023/12/07 00:03:36;;;;;;;18.15;11.77;;;2.50;99.90;;;;;;5070148;28;20518;-80
2023/12/07 00:06:02;;;;;;;18.88;11.23;;;2.60;99.90;;;;;;5061866;28;20048;-80
2023/12/07 00:08:28;;;;;;;20.02;11.70;;;2.50;99.90;;;;;;5050037;28;20048;-80
2023/12/07 00:10:54;;;;;;;20.90;12.80;;;2.50;99.90;;;;;;5056084;28;20052;-80
2023/12/07 00:13:19;;;;;;;18.00;12.15;;;2.50;99.90;;;;;;5054390;28;20049;-80
2023/12/07 00:15:45;;;;;;;19.38;12.32;;;3.70;99.90;;;;;;5050790;28;20132;-80
2023/12/07 00:18:11;;;;;;;19.13;11.73;;;2.60;99.90;;;;;;5051283;28;20472;-80
2023/12/07 00:20:37;;;;;;;18.73;11.63;;;2.90;99.90;;;;;;5069899;28;20071;-80
2023/12/07 00:23:03;;;;;;;22.83;12.25;;;2.50;99.90;;;;;;5073624;28;20088;-80
2023/12/07 00:25:28;;;;;;;20.45;12.30;;;2.50;99.90;;;;;;5065464;28;20045;-80
2023/12/07 00:27:54;;;;;;;22.85;12.38;;;2.50;99.90;;;;;;5071542;28;20075;-80
2023/12/07 00:30:20;;;;;;;20.50;12.95;;;3.70;99.90;;;;;;5069853;28;20506;-80
2023/12/07 00:32:46;;;;;;;19.58;11.70;;;2.50;99.90;;;;;;5057665;28;20052;-79
2023/12/07 00:35:12;;;;;;;19.67;11.93;;;2.60;99.90;;;;;;5063301;28;20392;-80
2023/12/07 00:37:38;;;;;;;19.95;12.45;;;2.50;99.90;;;;;;5067717;28;20065;-80
2023/12/07 00:40:05;;;;;;;49.35;12.13;;;3.50;99.90;;;;;;5051020;28;20173;-80
2023/12/07 00:42:30;;;;;;;18.02;11.45;;;2.50;99.90;;;;;;5061552;28;20115;-80
2023/12/07 00:44:56;;;;;;;20.27;11.95;;;2.50;99.90;;;;;;5064218;28;20123;-80
2023/12/07 00:47:22;;;;;;;18.90;11.88;;;2.50;99.90;;;;;;5068687;28;20049;-80
2023/12/07 00:49:48;;;;;;;19.60;10.95;;;2.50;99.90;;;;;;5053013;28;20057;-80
2023/12/07 00:52:14;;;;;;;18.70;11.48;;;2.50;99.90;;;;;;5051390;28;20060;-80
2023/12/07 00:54:39;;;;;;;19.42;10.93;;;2.50;99.90;;;;;;5055377;28;20557;-80
2023/12/07 00:57:06;;;;;;;20.27;10.30;;;2.80;99.90;;;;;;5064963;28;20075;-80
2023/12/07 00:59:33;;;;;;;19.10;10.60;;;2.50;99.90;;;;;;5060942;28;20439;-80
2023/12/07 01:02:03;;;;;;;20.33;10.13;;;3.60;99.90;;;;;;5070647;28;20072;-80
2023/12/07 01:04:29;;;;;;;17.35;10.35;;;2.50;99.90;;;;;;5054985;28;20053;-80
2023/12/07 01:06:55;;;;;;;19.55;11.48;;;2.50;99.90;;;;;;5053110;28;20087;-80
2023/12/07 01:09:21;;;;;;;17.90;10.48;;;2.50;99.90;;;;;;5068741;28;20055;-79
2023/12/07 01:11:47;;;;;;;18.70;10.95;;;2.50;99.90;;;;;;5065476;28;20056;-80
2023/12/07 01:14:13;;;;;;;20.35;10.20;;;2.50;99.90;;;;;;5068209;28;20044;-80
2023/12/07 01:16:39;;;;;;;17.80;10.85;;;2.50;99.90;;;;;;5060417;28;20048;-80
2023/12/07 01:19:05;;;;;;;17.38;9.98;;;2.60;99.90;;;;;;5066613;28;20143;-80
2023/12/07 01:21:30;;;;;;;16.40;10.05;;;2.50;99.90;;;;;;5059132;28;20045;-79
2023/12/07 01:23:58;;;;;;;16.50;9.65;;;2.50;99.90;;;;;;5058376;28;20472;-79
2023/12/07 01:26:24;;;;;;;16.50;10.32;;;2.50;99.90;;;;;;5061705;28;20526;-80
2023/12/07 01:28:49;;;;;;;16.88;9.38;;;2.50;99.90;;;;;;5053294;28;20053;-80
2023/12/07 01:31:15;;;;;;;17.05;10.43;;;2.50;99.90;;;;;;5055201;28;20063;-80
2023/12/07 01:33:40;;;;;;;18.58;9.90;;;2.50;99.90;;;;;;5069674;28;20044;-80
2023/12/07 01:36:06;;;;;;;18.02;10.15;;;2.50;99.90;;;;;;5068345;28;20045;-80
2023/12/07 01:38:32;;;;;;;16.20;9.88;;;2.50;99.90;;;;;;5064937;28;20516;-79
2023/12/07 01:40:57;;;;;;;14.75;9.75;;;2.60;99.90;;;;;;5052718;28;20056;-80
2023/12/07 01:43:23;;;;;;;16.88;9.68;;;2.50;99.90;;;;;;5065120;28;20037;-78
2023/12/07 01:45:54;;;;;;;13.05;8.57;;;2.50;99.90;;;;;;5061789;28;20041;-79
2023/12/07 01:48:21;;;;;;;14.52;8.52;;;2.60;99.90;;;;;;5059123;28;20044;-79
2023/12/07 01:50:47;;;;;;;18.63;10.45;;;2.60;99.90;;;;;;5056524;28;20075;-78
2023/12/07 01:53:15;;;;;;;16.75;8.90;;;2.60;99.90;;;;;;5059041;28;20080;-79
2023/12/07 01:55:41;;;;;;;15.73;9.38;;;2.60;99.90;;;;;;5055211;28;20523;-78
2023/12/07 01:58:07;;;;;;;15.02;9.68;;;2.60;99.90;;;;;;5060779;28;20052;-78
2023/12/07 02:00:34;;;;;;;16.05;9.25;;;2.60;99.90;;;;;;5066417;28;20067;-78
2023/12/07 02:03:03;;;;;;;12.07;7.68;;;2.60;99.90;;;;;;5054393;28;20705;-79
2023/12/07 02:05:29;;;;;;;15.68;8.15;;;2.60;99.90;;;;;;5066839;28;20079;-78
2023/12/07 02:07:55;;;;;;;17.35;9.13;;;2.60;99.90;;;;;;5057140;28;20102;-78
2023/12/07 02:10:20;;;;;;;14.98;9.45;;;2.60;99.90;;;;;;5054599;28;20484;-79
2023/12/07 02:12:47;;;;;;;14.70;9.00;;;2.60;99.90;;;;;;5060544;28;20490;-79
2023/12/07 02:15:13;;;;;;;14.70;9.10;;;2.50;99.90;;;;;;5058799;28;20053;-80
2023/12/07 02:17:50;;;;;;;13.77;9.23;;;3.40;99.90;;;;;;5063715;28;20064;-79
2023/12/07 02:20:28;;;;;;;15.27;9.07;;;2.50;99.90;;;;;;5058887;28;20141;-79
2023/12/07 02:22:56;;;;;;;19.73;10.10;;;2.50;99.90;;;;;;5061587;28;20057;-80
2023/12/07 02:25:52;;;;;;;14.48;9.27;;;2.50;99.90;;;;;;5057106;28;20125;-79
2023/12/07 02:28:17;;;;;;;17.55;9.40;;;2.50;99.90;;;;;;5060762;28;20100;-79
2023/12/07 02:30:43;;;;;;;17.30;10.02;;;2.50;99.90;;;;;;5061892;28;20071;-79
2023/12/07 02:33:10;;;;;;;15.35;9.10;;;2.50;99.90;;;;;;5053419;28;20405;-79
2023/12/07 02:35:37;;;;;;;16.77;9.35;;;2.50;99.90;;;;;;5065220;28;20040;-79
2023/12/07 02:38:03;;;;;;;14.02;8.52;;;2.50;99.90;;;;;;5053895;28;20056;-79
2023/12/07 02:40:30;;;;;;;15.02;9.15;;;2.50;99.90;;;;;;5067386;28;20053;-79
2023/12/07 02:42:57;;;;;;;14.07;8.35;;;2.50;99.90;;;;;;5061440;28;20049;-79
2023/12/07 02:45:23;;;;;;;14.60;8.88;;;3.00;99.90;;;;;;5053987;28;20479;-80
2023/12/07 02:47:49;;;;;;;15.80;9.73;;;2.50;99.90;;;;;;5061817;28;20120;-80
2023/12/07 02:50:14;;;;;;;16.25;8.80;;;2.50;99.90;;;;;;5061381;28;20088;-79
2023/12/07 02:52:40;;;;;;;15.10;9.15;;;2.50;99.90;;;;;;5054615;28;20052;-79
2023/12/07 02:55:07;;;;;;;15.63;9.00;;;2.50;99.90;;;;;;5058212;28;20499;-80
2023/12/07 02:57:35;;;;;;;17.27;9.63;;;2.50;99.90;;;;;;5063966;28;20045;-79
2023/12/07 03:00:06;;;;;;;14.32;8.45;;;2.50;99.90;;;;;;5058516;28;20045;-79
2023/12/07 03:02:34;;;;;;;18.27;9.48;;;2.50;99.90;;;;;;5057172;28;20063;-79
2023/12/07 03:04:59;;;;;;;15.18;9.23;;;2.50;99.90;;;;;;5073543;28;20506;-80
2023/12/07 03:07:25;;;;;;;15.52;9.52;;;2.50;99.90;;;;;;5063160;28;20134;-80
2023/12/07 03:09:50;;;;;;;15.65;8.68;;;2.50;99.90;;;;;;5052588;28;20163;-79
2023/12/07 03:12:16;;;;;;;15.18;8.40;;;2.50;99.90;;;;;;5059787;28;20063;-79
2023/12/07 03:14:41;;;;;;;16.02;8.98;;;2.50;99.90;;;;;;5054895;28;20052;-79
2023/12/07 03:17:07;;;;;;;15.10;9.00;;;2.50;99.90;;;;;;5054510;28;20063;-79
2023/12/07 03:19:33;;;;;;;12.77;8.80;;;2.40;99.90;;;;;;5068660;28;20396;-80
2023/12/07 03:21:58;;;;;;;16.27;8.93;;;2.90;99.90;;;;;;5057970;28;20088;-79
2023/12/07 03:24:24;;;;;;;16.02;9.70;;;2.50;99.90;;;;;;5053434;28;20507;-80
2023/12/07 03:26:49;;;;;;;16.83;9.82;;;2.40;99.90;;;;;;5067358;28;20106;-80
2023/12/07 03:29:15;;;;;;;16.50;9.25;;;2.50;99.90;;;;;;5059831;28;20052;-80
2023/12/07 03:31:41;;;;;;;19.55;9.60;;;2.40;99.90;;;;;;5061829;28;20499;-79
2023/12/07 03:34:06;;;;;;;16.02;8.23;;;2.40;99.90;;;;;;5056646;28;20110;-79
2023/12/07 03:36:32;;;;;;;22.10;10.02;;;2.40;99.90;;;;;;5068614;28;20052;-79
2023/12/07 03:38:58;;;;;;;15.15;8.65;;;2.50;99.90;;;;;;5064317;28;20079;-79
2023/12/07 03:41:23;;;;;;;15.48;9.25;;;2.50;99.90;;;;;;5071895;28;20049;-79
2023/12/07 03:43:49;;;;;;;16.75;9.45;;;2.40;99.90;;;;;;5062735;28;20037;-79
2023/12/07 03:46:14;;;;;;;17.10;10.35;;;2.40;99.90;;;;;;5072004;28;20056;-79
2023/12/07 03:48:40;;;;;;;17.25;10.00;;;2.40;99.90;;;;;;5058171;28;20116;-80
2023/12/07 03:51:06;;;;;;;16.08;9.63;;;2.40;99.90;;;;;;5066880;28;20041;-79
2023/12/07 03:53:32;;;;;;;16.45;9.63;;;2.40;99.90;;;;;;5071456;28;20053;-79
2023/12/07 03:55:57;;;;;;;17.48;9.50;;;2.40;99.90;;;;;;5070889;28;20095;-79
2023/12/07 03:58:23;;;;;;;18.30;10.45;;;2.40;99.90;;;;;;5065992;28;20499;-81
2023/12/07 04:00:48;;;;;;;16.27;9.90;;;2.40;99.90;;;;;;5053771;28;20052;-79
2023/12/07 04:03:14;;;;;;;18.17;10.27;;;2.40;99.90;;;;;;5039990;28;20179;-79
2023/12/07 04:05:39;;;;;;;16.80;9.98;;;2.40;99.90;;;;;;5055448;28;20079;-79
2023/12/07 04:08:05;;;;;;;22.55;10.93;;;2.40;99.90;;;;;;5070837;28;20595;-80
2023/12/07 04:10:31;;;;;;;20.00;10.60;;;2.40;99.90;;;;;;5062206;28;20036;-79
2023/12/07 04:12:57;;;;;;;14.40;8.57;;;2.40;99.90;;;;;;5072329;28;20800;-79
2023/12/07 04:15:23;;;;;;;16.40;9.70;;;2.30;99.90;;;;;;5072463;28;20063;-79
2023/12/07 04:17:49;;;;;;;17.02;10.45;;;2.40;99.90;;;;;;5055315;28;20053;-79
2023/12/07 04:20:15;;;;;;;17.90;9.68;;;2.30;99.90;;;;;;5063201;28;20049;-79
2023/12/07 04:22:41;;;;;;;17.10;10.30;;;2.50;99.90;;;;;;5054087;28;20094;-79
2023/12/07 04:25:07;;;;;;;21.58;11.32;;;2.20;99.90;;;;;;5055496;28;20493;-79
2023/12/07 04:27:36;;;;;;;18.38;10.52;;;2.20;99.90;;;;;;5065078;28;20041;-79
2023/12/07 04:30:03;;;;;;;18.70;10.32;;;2.20;99.90;;;;;;5056669;28;20045;-79
2023/12/07 04:32:29;;;;;;;18.60;10.48;;;2.10;99.90;;;;;;5039078;28;20053;-78
2023/12/07 04:34:55;;;;;;;21.20;11.50;;;2.20;99.90;;;;;;5054564;28;20671;-79
2023/12/07 04:37:20;;;;;;;20.42;11.25;;;2.10;99.90;;;;;;5055738;28;20124;-79
2023/12/07 04:39:46;;;;;;;30.75;10.68;;;2.10;99.90;;;;;;5045763;28;20119;-79
2023/12/07 04:42:12;;;;;;;18.83;10.95;;;3.30;99.90;;;;;;5067811;28;20033;-79
2023/12/07 04:44:37;;;;;;;20.38;11.40;;;2.00;99.90;;;;;;5057192;28;20545;-79
2023/12/07 04:47:03;;;;;;;21.65;11.88;;;2.00;99.90;;;;;;5052369;28;20041;-79
2023/12/07 04:49:29;;;;;;;18.38;10.88;;;2.00;99.90;;;;;;5056731;28;20090;-80
2023/12/07 04:51:54;;;;;;;19.73;10.48;;;2.00;99.90;;;;;;5055383;28;20048;-79
2023/12/07 04:54:20;;;;;;;20.58;11.75;;;1.90;99.90;;;;;;5059560;28;20401;-80
2023/12/07 04:56:46;;;;;;;21.08;12.32;;;1.90;99.90;;;;;;5070417;28;20040;-79
2023/12/07 04:59:12;;;;;;;16.25;9.27;;;1.90;99.90;;;;;;5061724;28;20041;-79
2023/12/07 05:01:37;;;;;;;22.25;11.10;;;1.90;99.90;;;;;;5052427;28;20041;-79
2023/12/07 05:04:04;;;;;;;22.20;12.73;;;1.80;99.90;;;;;;5068198;28;20044;-79
2023/12/07 05:06:34;;;;;;;20.85;11.15;;;1.90;99.90;;;;;;5065895;28;20044;-79
2023/12/07 05:08:59;;;;;;;24.60;12.82;;;1.80;99.90;;;;;;5049906;28;20048;-79
2023/12/07 05:11:25;;;;;;;20.08;11.20;;;1.80;99.90;;;;;;5062505;28;20045;-78
2023/12/07 05:13:51;;;;;;;21.52;11.85;;;1.90;99.90;;;;;;5061493;28;20044;-78
2023/12/07 05:16:16;;;;;;;20.10;12.05;;;1.80;99.90;;;;;;5054540;28;20053;-79
2023/12/07 05:18:43;;;;;;;19.35;11.20;;;1.80;99.90;;;;;;5054760;28;20056;-79
2023/12/07 05:21:10;;;;;;;21.55;11.43;;;1.80;99.90;;;;;;5043557;28;20036;-79
2023/12/07 05:23:35;;;;;;;18.88;11.15;;;1.80;99.90;;;;;;5055761;28;20059;-79
2023/12/07 05:26:01;;;;;;;19.83;10.82;;;2.00;99.90;;;;;;5065697;28;20388;-79
2023/12/07 05:28:27;;;;;;;21.85;12.40;;;1.80;99.90;;;;;;5051850;28;20052;-79
2023/12/07 05:30:52;;;;;;;22.42;12.48;;;1.80;99.90;;;;;;5037687;28;20059;-79
2023/12/07 05:33:21;;;;;;;22.48;11.93;;;1.90;99.90;;;;;;5065292;28;20059;-78
2023/12/07 05:35:47;;;;;;;20.23;10.85;;;1.90;99.90;;;;;;5056582;28;20040;-79
2023/12/07 05:38:12;;;;;;;25.20;12.95;;;1.90;99.90;;;;;;5069186;28;20059;-78
2023/12/07 05:40:38;;;;;;;23.45;13.23;;;1.90;99.90;;;;;;5069857;28;20044;-79
2023/12/07 05:43:04;;;;;;;25.30;12.50;;;1.90;99.90;;;;;;5052443;28;20045;-79
2023/12/07 05:45:30;;;;;;;25.02;13.82;;;2.00;99.90;;;;;;5051490;28;20063;-79
2023/12/07 05:47:56;;;;;;;24.92;12.93;;;1.90;99.90;;;;;;5053019;28;20044;-79
2023/12/07 05:50:21;;;;;;;25.30;12.25;;;2.00;99.90;;;;;;5064258;28;20040;-79
2023/12/07 05:52:47;;;;;;;19.92;12.32;;;2.50;99.90;;;;;;5063735;28;20045;-79
2023/12/07 05:55:13;;;;;;;21.92;10.90;;;1.90;99.90;;;;;;5056693;28;20044;-79
2023/12/07 05:57:39;;;;;;;21.02;12.20;;;1.90;99.90;;;;;;5061934;28;20048;-79
2023/12/07 06:00:11;;;;;;;25.08;12.45;;;2.30;99.90;;;;;;5050332;28;20393;-79
2023/12/07 06:02:36;;;;;;;18.38;10.20;;;1.90;99.90;;;;;;5055374;28;20041;-79
2023/12/07 06:05:04;;;;;;;20.67;11.60;;;1.90;99.90;;;;;;5054346;28;20365;-79
2023/12/07 06:07:30;;;;;;;25.25;13.13;;;1.80;99.90;;;;;;5067762;28;20057;-79
2023/12/07 06:09:56;;;;;;;23.88;12.77;;;1.90;99.90;;;;;;5055020;28;20044;-79
2023/12/07 06:12:22;;;;;;;23.48;13.32;;;1.90;99.90;;;;;;5056381;28;20041;-80
2023/12/07 06:14:49;;;;;;;24.48;12.95;;;1.90;99.90;;;;;;5034494;28;20045;-79
2023/12/07 06:17:14;;;;;;;20.45;11.80;;;1.90;99.90;;;;;;5062674;28;20061;-79
2023/12/07 06:19:40;;;;;;;23.02;12.32;;;1.90;99.90;;;;;;5061480;28;20105;-83
2023/12/07 06:22:06;;;;;;;20.15;10.93;;;1.80;99.90;;;;;;5057714;28;20468;-79
2023/12/07 06:24:32;;;;;;;27.83;12.50;;;1.80;99.90;;;;;;5062614;28;20230;-80
2023/12/07 06:26:58;;;;;;;19.20;11.23;;;1.80;99.90;;;;;;5062404;28;20060;-80
2023/12/07 06:29:24;;;;;;;23.65;12.50;;;1.80;99.90;;;;;;5054414;28;20406;-79
2023/12/07 06:31:49;;;;;;;22.70;12.88;;;1.80;99.90;;;;;;5058021;28;20041;-82
2023/12/07 06:34:16;;;;;;;25.63;13.02;;;1.80;99.90;;;;;;5054242;28;20064;-80
2023/12/07 06:36:41;;;;;;;20.05;11.30;;;1.80;99.90;;;;;;5065248;28;20119;-80
2023/12/07 06:39:07;;;;;;;25.30;13.93;;;1.80;99.90;;;;;;5056481;28;20139;-79
2023/12/07 06:41:33;;;;;;;24.38;12.98;;;1.80;99.90;;;;;;5050168;28;20037;-79
2023/12/07 06:43:59;;;;;;;19.33;10.80;;;1.80;99.90;;;;;;5050274;28;20045;-79
2023/12/07 06:46:25;;;;;;;19.90;11.52;;;1.80;99.90;;;;;;5059576;28;20119;-80
2023/12/07 06:48:51;;;;;;;19.42;10.50;;;1.70;99.90;;;;;;5060601;28;20112;-80
2023/12/07 06:51:16;;;;;;;26.33;12.45;;;1.80;99.90;;;;;;5059879;28;20490;-79
2023/12/07 06:53:42;;;;;;;24.30;13.23;;;1.80;99.90;;;;;;5061702;28;20041;-81
2023/12/07 06:56:08;;;;;;;25.13;12.88;;;1.80;99.90;;;;;;5061449;28;20476;-80
2023/12/07 06:58:34;;;;;;;24.92;12.43;;;1.80;99.90;;;;;;5054193;28;20044;-81
2023/12/07 07:01:00;;;;;;;24.95;13.27;;;1.80;99.90;;;;;;5054879;28;20045;-80
2023/12/07 07:03:27;;;;;;;31.65;15.07;;;1.80;99.90;;;;;;5055437;28;20476;-80
2023/12/07 07:05:54;;;;;;;25.48;13.65;;;1.80;99.90;;;;;;5052789;28;20072;-83
2023/12/07 07:08:19;;;;;;;25.52;14.25;;;1.80;99.90;;;;;;5058549;28;20527;-80
2023/12/07 07:10:47;;;;;;;31.35;15.45;;;1.80;99.90;;;;;;5051169;28;20148;-79
2023/12/07 07:13:15;;;;;;;28.55;15.00;;;2.40;99.90;;;;;;5066991;28;20064;-80
2023/12/07 07:15:43;;;;;;;26.65;14.75;;;1.70;99.90;;;;;;5034344;28;20404;-80
2023/12/07 07:18:09;;;;;;;27.65;15.32;;;1.70;99.90;;;;;;5050514;28;20479;-81
2023/12/07 07:20:34;;;;;;;24.05;13.57;;;2.80;99.90;;;;;;5067899;28;20076;-81
2023/12/07 07:23:00;;;;;;;26.98;15.38;;;1.70;99.90;;;;;;5062633;28;20041;-79
2023/12/07 07:25:26;;;;;;;29.02;15.45;;;1.70;99.90;;;;;;5069583;28;20553;-79
2023/12/07 07:27:52;;;;;;;30.17;15.68;;;2.10;99.90;;;;;;5070297;28;20047;-81
2023/12/07 07:30:18;;;;;;;29.60;17.08;;;2.10;99.90;;;;;;5080131;28;20040;-78
2023/12/07 07:32:43;;;;;;;28.42;15.63;;;1.70;99.90;;;;;;5072643;28;20380;-78
2023/12/07 07:35:11;;;;;;;29.02;15.98;;;1.70;99.90;;;;;;5062337;28;20481;-78
2023/12/07 07:37:41;;;;;;;28.60;15.70;;;1.70;99.90;;;;;;5070773;28;20385;-78
2023/12/07 07:40:11;;;;;;;31.65;17.55;;;1.70;99.90;;;;;;5042996;28;20044;-78
2023/12/07 07:42:39;;;;;;;29.40;15.98;;;1.70;99.90;;;;;;5072837;28;20071;-77
2023/12/07 07:45:09;;;;;;;29.10;16.35;;;1.70;99.90;;;;;;5072649;28;20735;-78
2023/12/07 07:47:35;;;;;;;30.33;16.98;;;1.70;99.90;;;;;;5065905;28;20041;-79
2023/12/07 07:50:05;;;;;;;34.53;18.15;;;1.70;99.90;;;;;;5061878;28;20033;-79
2023/12/07 07:52:32;;;;;;;30.98;16.70;;;1.70;99.90;;;;;;5069022;28;20048;-80
2023/12/07 07:54:59;;;;;;;37.90;19.13;;;1.70;99.90;;;;;;5063207;28;20044;-79
2023/12/07 07:57:24;;;;;;;24.92;14.45;;;1.70;99.90;;;;;;5060454;28;20083;-80
2023/12/07 07:59:50;;;;;;;33.65;17.80;;;1.70;99.90;;;;;;5069720;28;20561;-79
2023/12/07 08:02:16;;;;;;;34.72;19.08;;;1.70;99.90;;;;;;5065229;28;20045;-80
2023/12/07 08:04:41;;;;;;;32.13;18.63;;;1.90;99.90;;;;;;5068296;28;20045;-79
2023/12/07 08:07:07;;;;;;;34.58;18.95;;;1.70;99.90;;;;;;5065676;28;20440;-79
2023/12/07 08:09:33;;;;;;;36.95;19.25;;;1.70;99.90;;;;;;5070470;28;20040;-79
2023/12/07 08:11:59;;;;;;;31.40;17.65;;;1.70;99.90;;;;;;5071243;28;20045;-79
2023/12/07 08:14:24;;;;;;;34.33;17.90;;;1.70;99.90;;;;;;5067116;28;20451;-79
2023/12/07 08:16:50;;;;;;;33.75;18.25;;;1.70;99.90;;;;;;5069306;28;20123;-79
2023/12/07 08:19:15;;;;;;;37.55;19.80;;;1.70;99.90;;;;;;5072945;28;20108;-80
2023/12/07 08:21:41;;;;;;;40.05;20.88;;;1.70;99.90;;;;;;5056017;28;20129;-79
2023/12/07 08:24:07;;;;;;;32.92;18.05;;;1.70;99.90;;;;;;5064765;28;20179;-79
2023/12/07 08:26:32;;;;;;;38.20;19.88;;;1.70;99.90;;;;;;5072382;28;20041;-79
2023/12/07 08:28:58;;;;;;;36.33;19.75;;;1.70;99.90;;;;;;5069129;28;20131;-80
2023/12/07 08:31:24;;;;;;;39.65;20.17;;;1.70;99.90;;;;;;5060977;28;20127;-80
2023/12/07 08:33:51;;;;;;;43.72;24.27;;;1.80;99.90;;;;;;5069886;28;20040;-81
2023/12/07 08:36:16;;;;;;;37.22;19.88;;;1.80;99.90;;;;;;5060796;28;20458;-79
2023/12/07 08:38:42;;;;;;;39.63;21.48;;;1.80;99.90;;;;;;5071701;28;20115;-79
2023/12/07 08:41:08;;;;;;;40.63;20.67;;;1.80;99.90;;;;;;5066485;28;20040;-79
2023/12/07 08:43:33;;;;;;;41.80;21.45;;;2.00;99.90;;;;;;5071136;28;20036;-79
2023/12/07 08:45:59;;;;;;;45.85;23.83;;;1.80;99.90;;;;;;5071277;28;20045;-81
2023/12/07 08:48:25;;;;;;;37.15;20.10;;;1.80;99.90;;;;;;5062067;28;20492;-81
2023/12/07 08:50:51;;;;;;;37.88;19.15;;;1.80;99.90;;;;;;5043515;28;20143;-81
2023/12/07 08:53:17;;;;;;;39.45;20.65;;;1.70;99.90;;;;;;5066259;28;20446;-80
2023/12/07 08:55:42;;;;;;;39.35;20.63;;;1.70;99.90;;;;;;5063524;28;20090;-79
2023/12/07 08:58:10;;;;;;;40.47;21.65;;;1.70;99.90;;;;;;5051120;28;20094;-79
2023/12/07 09:00:37;;;;;;;39.78;22.00;;;1.70;99.90;;;;;;5071402;28;20045;-80
2023/12/07 09:03:03;;;;;;;40.53;21.77;;;1.60;99.90;;;;;;5066772;28;20048;-79
2023/12/07 09:05:29;;;;;;;42.15;21.52;;;1.60;99.90;;;;;;5055072;28;20032;-80
2023/12/07 09:07:56;;;;;;;39.50;22.88;;;1.60;99.90;;;;;;5065065;28;20768;-79
2023/12/07 09:10:22;;;;;;;38.78;22.17;;;1.60;99.90;;;;;;5072703;28;20115;-79
2023/12/07 09:12:48;;;;;;;36.75;20.20;;;1.60;99.90;;;;;;5070843;28;20124;-79
2023/12/07 09:15:14;;;;;;;39.28;22.30;;;1.60;99.90;;;;;;5070658;28;20051;-80
2023/12/07 09:17:39;;;;;;;42.92;22.13;;;1.60;99.90;;;;;;5044826;28;20064;-80
2023/12/07 09:20:12;;;;;;;40.55;22.20;;;1.60;99.90;;;;;;5070417;28;20059;-79
2023/12/07 09:22:46;;;;;;;40.30;23.00;;;1.50;99.90;;;;;;5063437;28;20569;-79
2023/12/07 09:25:12;;;;;;;;;;;1.50;99.90;;;;;;5068451;28;20051;-80
2023/12/07 09:27:39;;;;;;;41.22;22.27;;;1.50;99.90;;;;;;5065673;28;19921;-79
2023/12/07 09:30:10;;;;;;;46.40;23.98;;;1.40;99.90;;;;;;5063181;28;20052;-79
2023/12/07 09:32:42;;;;;;;47.63;26.00;;;1.40;99.90;;;;;;5069885;28;20064;-79
2023/12/07 09:35:18;;;;;;;47.15;23.25;;;1.40;99.90;;;;;;5062408;28;20088;-79
2023/12/07 09:37:45;;;;;;;41.42;23.20;;;1.50;99.90;;;;;;5068238;28;20488;-80
2023/12/07 09:40:25;;;;;;;41.83;23.45;;;1.50;99.90;;;;;;5067148;28;20040;-82
2023/12/07 09:42:51;;;;;;;41.08;22.40;;;1.50;99.90;;;;;;5059176;28;20074;-80
2023/12/07 09:45:19;;;;;;;46.50;22.77;;;1.50;99.90;;;;;;5066783;28;20089;-81
2023/12/07 09:47:48;;;;;;;36.75;20.98;;;1.50;99.90;;;;;;5070722;28;20380;-81
2023/12/07 09:50:17;;;;;;;40.97;21.75;;;1.50;99.90;;;;;;5070976;28;20044;-80
2023/12/07 09:52:43;;;;;;;40.58;22.65;;;1.60;99.90;;;;;;5066112;28;20052;-80
2023/12/07 09:55:09;;;;;;;41.05;22.60;;;1.60;99.90;;;;;;5062189;28;20100;-79
2023/12/07 09:57:37;;;;;;;40.55;22.77;;;1.60;99.90;;;;;;5069476;28;20048;-80
2023/12/07 10:00:04;;;;;;;41.28;21.58;;;1.60;99.90;;;;;;5070415;28;20052;-80
2023/12/07 10:02:30;;;;;;;41.58;22.63;;;1.60;99.90;;;;;;5070432;28;20051;-79
2023/12/07 10:05:10;;;;;;;45.92;21.73;;;1.70;99.90;;;;;;5066818;28;21355;-80
2023/12/07 10:07:40;;;;;;;42.72;22.17;;;1.70;99.90;;;;;;5065783;28;20048;-79
2023/12/07 10:10:07;;;;;;;40.92;22.00;;;1.70;99.90;;;;;;5068894;28;20040;-79
2023/12/07 10:12:34;;;;;;;39.53;21.88;;;1.80;99.90;;;;;;5067406;28;20481;-80
2023/12/07 10:15:03;;;;;;;39.65;21.13;;;1.80;99.90;;;;;;5069313;28;20118;-80
2023/12/07 10:17:47;;;;;;;35.78;20.50;;;1.80;99.90;;;;;;5065824;28;20060;-79
2023/12/07 10:20:17;;;;;;;;;;;1.90;99.90;;;;;;5060486;28;20040;-79
2023/12/07 10:22:43;;;;;;;43.65;20.77;;;1.90;99.90;;;;;;5067423;28;19942;-80
2023/12/07 10:25:10;;;;;;;39.83;21.48;;;2.10;99.90;;;;;;5070915;28;20044;-80
2023/12/07 10:27:38;;;;;;;40.13;20.17;;;2.00;99.90;;;;;;5070906;28;20080;-80
2023/12/07 10:30:06;;;;;;;34.00;19.83;;;2.10;99.90;;;;;;5070154;28;20040;-79
2023/12/07 10:32:36;;;;;;;34.97;19.80;;;2.10;99.90;;;;;;5061965;28;20044;-80
2023/12/07 10:35:01;;;;;;;36.78;19.77;;;2.20;99.90;;;;;;5068768;28;20447;-80
2023/12/07 10:37:27;;;;;;;35.80;20.05;;;2.20;99.90;;;;;;5062449;28;20076;-80
2023/12/07 10:39:53;;;;;;;33.15;19.90;;;2.30;99.90;;;;;;5062551;28;20106;-80
2023/12/07 10:42:23;;;;;;;33.95;19.63;;;2.70;99.90;;;;;;5070240;28;20721;-80
2023/12/07 10:44:53;;;;;;;36.33;20.10;;;2.40;99.90;;;;;;5073569;28;20052;-82
2023/12/07 10:47:22;;;;;;;33.50;18.38;;;2.40;99.90;;;;;;5069458;28;20068;-80
2023/12/07 10:49:54;;;;;;;36.15;19.58;;;2.50;99.90;;;;;;5062598;28;20103;-80
2023/12/07 10:52:24;;;;;;;35.05;19.52;;;2.60;99.90;;;;;;5070359;28;20128;-81
2023/12/07 10:54:56;;;;;;;33.55;19.17;;;2.60;99.90;;;;;;5064363;28;20480;-80
2023/12/07 10:57:22;;;;;;;31.48;18.40;;;2.70;99.90;;;;;;5061563;28;20037;-80
2023/12/07 10:59:50;;;;;;;33.85;17.35;;;2.80;99.90;;;;;;5069361;28;20041;-79
2023/12/07 11:02:16;;;;;;;28.42;16.30;;;2.80;99.90;;;;;;5073382;28;20478;-81
2023/12/07 11:04:43;;;;;;;32.42;17.52;;;2.90;99.90;;;;;;5066593;28;20116;-79
2023/12/07 11:07:15;;;;;;;27.65;16.63;;;3.40;99.90;;;;;;5065570;28;20463;-82
2023/12/07 11:09:47;;;;;;;30.77;17.33;;;3.00;99.90;;;;;;5073661;28;20484;-79
2023/12/07 11:12:20;;;;;;;25.58;15.52;;;3.20;99.90;;;;;;5073508;28;20044;-82
2023/12/07 11:14:46;;;;;;;24.65;14.73;;;3.20;99.90;;;;;;5066025;28;20117;-80
2023/12/07 11:17:12;;;;;;;25.65;15.30;;;4.70;99.90;;;;;;5073519;28;21434;-82
2023/12/07 11:19:42;;;;;;;22.00;13.55;;;3.30;99.90;;;;;;5072534;28;20041;-80
2023/12/07 11:22:13;;;;;;;23.48;14.52;;;3.40;99.90;;;;;;5068302;28;20072;-80
2023/12/07 11:24:55;;;;;;;25.40;14.65;;;3.40;99.90;;;;;;5057912;28;20455;-80
2023/12/07 11:27:21;;;;;;;26.02;15.02;;;3.40;99.90;;;;;;5070632;28;20488;-82
2023/12/07 11:29:48;;;;;;;23.20;14.35;;;3.40;99.90;;;;;;5073776;28;20044;-80
2023/12/07 11:32:14;;;;;;;25.35;13.57;;;3.40;99.90;;;;;;5073608;28;20036;-81
2023/12/07 11:34:42;;;;;;;22.27;13.80;;;3.30;99.90;;;;;;5073402;28;20495;-80
2023/12/07 11:37:09;;;;;;;25.98;14.10;;;3.20;99.90;;;;;;5074407;28;20095;-81
2023/12/07 11:39:41;;;;;;;26.38;14.02;;;3.60;99.90;;;;;;5070050;28;20048;-79
2023/12/07 11:42:17;;;;;;;25.40;14.50;;;2.90;99.90;;;;;;5074489;28;20380;-80
2023/12/07 11:44:47;;;;;;;24.73;15.55;;;2.90;99.90;;;;;;5069311;28;20053;-79
2023/12/07 11:47:19;;;;;;;25.92;15.75;;;2.80;99.90;;;;;;5070041;28;20396;-80
2023/12/07 11:49:46;;;;;;;26.02;16.08;;;2.70;99.90;;;;;;5067033;28;20040;-80
2023/12/07 11:52:21;;;;;;;25.23;14.43;;;2.70;99.90;;;;;;5057211;28;20713;-81
2023/12/07 11:54:48;;;;;;;25.52;14.80;;;2.70;99.90;;;;;;5074018;28;20498;-82
2023/12/07 11:57:15;;;;;;;25.75;15.52;;;2.70;99.90;;;;;;5073775;28;20052;-80
2023/12/07 11:59:45;;;;;;;23.35;14.57;;;2.60;99.90;;;;;;5073918;28;20056;-80
2023/12/07 12:02:14;;;;;;;28.35;16.23;;;2.60;99.90;;;;;;5065821;28;20048;-80
2023/12/07 12:04:42;;;;;;;26.00;15.48;;;2.60;99.90;;;;;;5075112;28;20040;-80
2023/12/07 12:07:08;;;;;;;25.13;15.90;;;2.60;99.90;;;;;;5072664;28;20048;-80
2023/12/07 12:09:34;;;;;;;26.17;15.10;;;2.60;99.90;;;;;;5069094;28;20045;-82
2023/12/07 12:12:00;;;;;;;29.52;16.60;;;2.60;99.90;;;;;;5061002;28;20114;-79
2023/12/07 12:14:27;;;;;;;30.65;16.35;;;2.50;99.90;;;;;;5061164;28;20052;-83
2023/12/07 12:16:53;;;;;;;33.63;18.58;;;3.90;99.90;;;;;;5063410;28;20048;-82
2023/12/07 12:19:19;;;;;;;34.53;16.65;;;2.40;99.90;;;;;;5072031;28;20050;-80
2023/12/07 12:21:46;;;;;;;29.17;16.98;;;2.40;99.90;;;;;;5063770;28;20045;-80
2023/12/07 12:24:12;;;;;;;53.72;18.40;;;2.40;99.90;;;;;;5062645;28;20076;-81
2023/12/07 12:26:41;;;;;;;33.10;16.63;;;2.40;99.90;;;;;;5071375;28;20044;-80
2023/12/07 12:29:08;;;;;;;38.13;15.98;;;2.40;99.90;;;;;;5056479;28;20066;-80
2023/12/07 12:31:34;;;;;;;37.53;17.20;;;2.40;99.90;;;;;;5068501;28;20040;-80
2023/12/07 12:34:05;;;;;;;29.70;16.38;;;2.40;99.90;;;;;;5071215;28;20052;-80
2023/12/07 12:36:31;;;;;;;28.48;17.17;;;2.40;99.90;;;;;;5072751;28;20101;-80
2023/12/07 12:38:57;;;;;;;38.03;17.92;;;2.30;99.90;;;;;;5069330;28;20052;-80